Time;durP1;ratioP1;P1;durP2;ratioP2;P2;SDS_P1;SDS_P2;PMS_P1;PMS_P2;Temp;Humidity;BMP_temperature;BMP_pressure;BME280_temperature;BME280_humidity;BME280_pressure;Samples;Min_cycle;Max_cycle;Signal;HPM_P1;HPM_P2
2023/04/21 00:04:55;;;;;;;4.10;3.08;;;;;;;23.05;34.48;101750.19;20997212;28;20040;-74
2023/04/21 00:14:56;;;;;;;5.88;3.45;;;;;;;23.30;34.44;101802.44;20995520;28;20074;-76
2023/04/21 00:24:57;;;;;;;6.88;3.40;;;;;;;23.15;34.53;101794.03;20994778;28;20044;-74
2023/04/21 00:34:59;;;;;;;5.68;2.78;;;;;;;23.36;34.89;101834.00;20994362;28;20049;-75
2023/04/21 00:45:03;;;;;;;5.88;2.92;;;;;;;23.30;34.77;101838.75;20994100;28;20041;-75
2023/04/21 00:55:06;;;;;;;5.10;2.42;;;;;;;23.38;34.65;101847.72;20992504;28;20049;-76
2023/04/21 01:05:08;;;;;;;3.80;2.50;;;;;;;23.37;34.85;101862.78;20988644;28;20040;-75
2023/04/21 01:15:11;;;;;;;7.07;2.58;;;;;;;23.36;34.99;101867.53;20909542;28;20400;-76
2023/04/21 01:25:12;;;;;;;5.15;2.70;;;;;;;23.34;34.53;101875.34;20987741;28;20098;-75
2023/04/21 01:35:14;;;;;;;4.10;2.30;;;;;;;23.30;34.74;101863.88;20973101;28;20132;-74
2023/04/21 01:45:15;;;;;;;4.07;2.65;;;;;;;23.26;34.66;101851.56;20991654;28;20533;-76
2023/04/21 01:55:16;;;;;;;4.80;2.50;;;;;;;23.36;34.99;101872.28;20990783;28;20037;-75
2023/04/21 02:05:21;;;;;;;3.45;2.28;;;;;;;23.09;34.58;101831.41;20990796;28;20040;-75
2023/04/21 02:15:25;;;;;;;7.55;2.35;;;;;;;23.28;34.85;101860.53;21003229;28;20044;-74
2023/04/21 02:25:27;;;;;;;5.95;2.53;;;;;;;23.29;34.96;101867.78;21003688;28;20553;-75
2023/04/21 02:35:28;;;;;;;3.08;2.05;;;;;;;23.28;35.00;101876.47;20999573;28;20052;-74
2023/04/21 02:45:30;;;;;;;3.72;2.13;;;;;;;23.27;34.79;101864.41;21002309;28;20033;-74
2023/04/21 02:55:31;;;;;;;5.15;2.00;;;;;;;23.17;34.75;101842.06;21001664;28;20071;-75
2023/04/21 03:05:33;;;;;;;6.70;2.25;;;;;;;23.24;35.15;101853.81;21002191;28;20102;-74
2023/04/21 03:15:37;;;;;;;5.95;2.38;;;;;;;22.79;34.94;101779.94;20971695;28;20545;-81
2023/04/21 03:25:38;;;;;;;6.85;2.78;;;;;;;23.20;34.95;101858.28;20924445;28;20435;-86
2023/04/21 03:35:40;;;;;;;7.70;2.75;;;;;;;23.14;35.28;101852.94;20969356;28;20056;-87
2023/04/21 03:45:41;;;;;;;5.00;2.50;;;;;;;23.03;35.29;101846.47;20975810;28;20029;-86
2023/04/21 03:55:42;;;;;;;5.57;2.65;;;;;;;23.13;35.37;101868.84;21007352;28;20104;-87
2023/04/21 04:05:47;;;;;;;5.70;2.47;;;;;;;23.10;35.79;101880.56;21016408;28;20032;-86
2023/04/21 04:15:48;;;;;;;6.47;2.63;;;;;;;23.11;36.02;101873.88;20962737;28;20036;-82
2023/04/21 04:25:50;;;;;;;4.90;2.30;;;;;;;23.10;36.07;101871.38;20970063;28;20052;-82
2023/04/21 04:35:54;;;;;;;7.55;2.83;;;;;;;23.00;35.66;101863.75;20987168;28;20487;-81
2023/04/21 04:45:56;;;;;;;4.72;2.13;;;;;;;22.84;36.34;101846.09;20957691;28;20037;-84
2023/04/21 04:56:00;;;;;;;7.28;2.83;;;;;;;22.92;36.25;101855.94;20946669;28;20045;-81
2023/04/21 05:06:01;;;;;;;4.28;2.78;;;;;;;23.01;36.30;101871.06;20922809;28;20033;-79
2023/04/21 05:16:03;;;;;;;3.85;1.70;;;;;;;23.09;36.15;101878.88;20979849;28;20090;-81
2023/04/21 05:26:04;;;;;;;5.10;2.50;;;;;;;22.74;36.23;101807.81;20975100;28;20071;-82
2023/04/21 05:36:08;;;;;;;5.20;2.13;;;;;;;23.12;36.38;101860.75;20994172;28;20483;-82
2023/04/21 05:46:09;;;;;;;4.03;1.90;;;;;;;23.09;36.46;101850.97;20995005;28;20395;-81
2023/04/21 05:56:12;;;;;;;2.88;2.13;;;;;;;23.09;36.31;101848.16;20939331;28;20032;-82
2023/04/21 06:06:19;;;;;;;5.95;2.45;;;;;;;23.01;36.70;101827.22;21007838;28;20021;-82
2023/04/21 06:16:21;;;;;;;3.67;2.63;;;;;;;23.06;36.54;101829.19;21006469;28;20041;-81
2023/04/21 06:26:22;;;;;;;3.45;2.00;;;;;;;22.97;36.90;101802.94;21006412;28;20109;-82
2023/04/21 06:36:23;;;;;;;3.80;1.95;;;;;;;22.98;36.93;101791.47;21004003;28;20083;-80
2023/04/21 06:46:25;;;;;;;4.25;2.28;;;;;;;23.02;36.70;101789.81;20997086;28;20049;-80
2023/04/21 06:56:26;;;;;;;4.57;2.40;;;;;;;23.01;36.96;101776.16;20919693;28;20037;-82
2023/04/21 07:06:28;;;;;;;4.00;2.50;;;;;;;22.79;36.98;101749.25;20952771;28;20468;-80
2023/04/21 07:16:29;;;;;;;7.07;2.63;;;;;;;22.86;37.18;101753.72;20963572;28;20048;-84
2023/04/21 07:26:34;;;;;;;4.32;2.00;;;;;;;22.54;37.37;101710.09;20895718;28;20038;-82
2023/04/21 07:36:36;;;;;;;3.80;2.10;;;;;;;22.80;37.30;101778.00;20889171;28;20033;-82
2023/04/21 07:46:38;;;;;;;2.72;2.15;;;;;;;22.80;37.53;101772.41;20849473;28;20095;-81
2023/04/21 07:56:39;;;;;;;4.55;2.28;;;;;;;22.77;37.63;101782.19;20912105;28;20088;-82
2023/04/21 08:06:44;;;;;;;4.25;2.20;;;;;;;22.19;37.22;101708.84;20915045;28;20021;-81
2023/04/21 08:16:46;;;;;;;3.80;1.90;;;;;;;22.59;37.81;101760.34;20913335;28;20028;-81
2023/04/21 08:26:47;;;;;;;3.75;2.10;;;;;;;22.69;37.73;101770.72;20931109;28;20044;-82
2023/04/21 08:36:49;;;;;;;2.92;2.00;;;;;;;22.55;37.87;101746.09;20992559;28;20033;-82
2023/04/21 08:46:51;;;;;;;4.20;2.22;;;;;;;22.67;37.96;101748.63;20946085;28;20037;-82
2023/04/21 08:56:53;;;;;;;2.65;2.00;;;;;;;22.72;37.80;101745.03;20975481;28;20040;-82
2023/04/21 09:06:54;;;;;;;6.80;2.38;;;;;;;22.44;37.89;101687.75;20976400;28;20020;-82
2023/04/21 09:17:03;;;;;;;3.35;1.90;;;;;;;22.40;37.60;101686.63;20934750;28;20094;-82
2023/04/21 09:27:04;;;;;;;7.32;2.42;;;;;;;22.50;37.78;101695.88;20972485;28;20041;-81
2023/04/21 09:37:06;;;;;;;3.65;2.00;;;;;;;22.47;37.71;101682.47;20972949;28;20048;-82
2023/04/21 09:47:12;;;;;;;5.43;2.25;;;;;;;22.61;37.96;101721.84;20993752;28;20036;-80
2023/04/21 09:57:21;;;;;;;4.57;2.20;;;;;;;22.49;37.70;101712.88;20969426;28;20074;-81
2023/04/21 10:07:22;;;;;;;;;;;;;;;22.62;37.70;101725.47;20975522;28;20033;-80
2023/04/21 10:17:25;;;;;;;4.18;2.05;;;;;;;22.55;37.96;101706.22;20991199;28;20313;-82
2023/04/21 10:27:34;;;;;;;3.78;2.30;;;;;;;22.63;38.11;101722.41;20990334;28;20052;-83
2023/04/21 10:37:35;;;;;;;3.35;2.33;;;;;;;22.39;38.30;101696.09;21005304;28;20053;-82
2023/04/21 10:47:45;;;;;;;3.78;2.60;;;;;;;22.54;38.20;101715.66;21003739;28;20475;-82
2023/04/21 10:57:47;;;;;;;4.05;2.70;;;;;;;22.47;38.21;101709.53;20930030;28;20045;-82
2023/04/21 11:07:48;;;;;;;3.90;2.50;;;;;;;22.48;38.16;101713.97;20960391;28;20037;-80
2023/04/21 11:17:50;;;;;;;3.95;2.80;;;;;;;22.49;38.45;101715.66;20910980;28;20043;-81
2023/04/21 11:27:55;;;;;;;8.27;3.55;;;;;;;22.58;38.48;101730.75;20944746;28;20045;-80
2023/04/21 11:37:59;;;;;;;6.30;3.70;;;;;;;22.45;38.61;101695.00;20962077;28;20048;-82
2023/04/21 11:48:18;;;;;;;5.47;3.80;;;;;;;22.51;38.48;101732.97;21001690;28;20040;-82
2023/04/21 11:58:20;;;;;;;6.93;4.73;;;;;;;22.32;38.84;101696.38;20965760;28;20025;-81
2023/04/21 12:08:21;;;;;;;12.65;4.78;;;;;;;22.39;39.18;101719.25;20947652;28;20041;-78
2023/04/21 12:18:27;;;;;;;5.82;3.78;;;;;;;22.42;39.40;101715.09;20971620;28;20516;-77
2023/04/21 12:28:29;;;;;;;6.45;3.00;;;;;;;22.52;38.99;101718.75;20954217;28;20074;-78
2023/04/21 12:38:36;;;;;;;10.38;4.40;;;;;;;22.38;39.26;101695.25;20987358;28;20032;-80
2023/04/21 12:48:37;;;;;;;12.98;5.10;;;;;;;22.47;40.01;101703.94;20993394;28;20410;-80
2023/04/21 12:58:42;;;;;;;12.02;6.07;;;;;;;22.41;39.81;101705.88;20994367;28;20025;-80
2023/04/21 13:08:46;;;;;;;9.57;4.90;;;;;;;22.28;39.91;101667.34;20993758;28;20066;-80
2023/04/21 13:18:50;;;;;;;7.97;5.15;;;;;;;22.29;39.97;101669.84;20992349;28;20067;-80
2023/04/21 13:28:51;;;;;;;9.23;4.65;;;;;;;22.22;40.27;101658.13;20991735;28;20044;-80
2023/04/21 13:38:54;;;;;;;9.90;4.72;;;;;;;22.24;40.28;101667.03;20992174;28;20110;-80
2023/04/21 13:48:56;;;;;;;8.82;4.70;;;;;;;22.26;40.59;101669.56;20992364;28;20472;-79
2023/04/21 13:58:58;;;;;;;8.77;5.80;;;;;;;22.14;40.51;101641.09;20973479;28;20399;-78
2023/04/21 14:09:00;;;;;;;8.45;5.00;;;;;;;22.22;40.89;101651.69;21002382;28;20048;-81
2023/04/21 14:19:01;;;;;;;8.55;4.00;;;;;;;22.16;40.67;101642.47;21006474;28;20029;-79
2023/04/21 14:29:02;;;;;;;10.18;5.30;;;;;;;22.31;41.15;101667.66;21004364;28;20495;-79
2023/04/21 14:39:04;;;;;;;6.10;4.70;;;;;;;22.22;40.89;101635.81;21004677;28;20394;-79
2023/04/21 14:49:05;;;;;;;8.50;5.43;;;;;;;22.39;41.04;101640.31;21005620;28;20556;-80
2023/04/21 14:59:09;;;;;;;6.20;4.05;;;;;;;22.19;40.48;101597.34;21003794;28;20445;-80
2023/04/21 15:09:13;;;;;;;8.73;4.95;;;;;;;22.28;40.90;101595.69;21001887;28;20498;-79
2023/04/21 15:19:14;;;;;;;8.05;5.03;;;;;;;22.28;40.80;101584.53;21000063;28;20062;-79
2023/04/21 15:29:16;;;;;;;7.65;4.97;;;;;;;22.35;41.10;101577.84;20999219;28;20106;-80
2023/04/21 15:39:17;;;;;;;6.32;4.93;;;;;;;22.28;40.75;101556.66;20982017;28;20090;-80
2023/04/21 15:49:18;;;;;;;8.45;4.70;;;;;;;22.54;40.59;101587.38;20980943;28;20102;-79
2023/04/21 15:59:19;;;;;;;9.13;4.85;;;;;;;22.70;40.87;101569.53;20997364;28;20040;-79
2023/04/21 16:09:21;;;;;;;11.23;5.95;;;;;;;22.54;41.34;101526.00;20975782;28;20041;-74
2023/04/21 16:19:25;;;;;;;11.00;5.65;;;;;;;22.78;41.54;101524.34;20962664;28;20124;-74
2023/04/21 16:29:26;;;;;;;6.18;4.63;;;;;;;22.73;41.06;101496.47;20994781;28;20066;-75
2023/04/21 16:39:28;;;;;;;9.48;4.88;;;;;;;22.77;41.52;101479.97;20993998;28;20206;-75
2023/04/21 16:49:29;;;;;;;7.85;4.95;;;;;;;22.92;41.78;101488.38;20993718;28;20044;-74
2023/04/21 16:59:30;;;;;;;10.02;5.32;;;;;;;22.70;41.99;101429.22;20993439;28;20235;-74
2023/04/21 17:09:32;;;;;;;8.38;5.03;;;;;;;23.02;42.23;101460.44;20993595;28;20036;-75
2023/04/21 17:19:36;;;;;;;7.75;4.80;;;;;;;23.07;42.00;101445.63;20993036;28;20541;-73
2023/04/21 17:29:37;;;;;;;8.48;5.53;;;;;;;23.13;41.37;101427.72;20970762;28;20052;-78
2023/04/21 17:39:42;;;;;;;12.60;5.30;;;;;;;23.05;41.78;101392.06;20985453;28;20049;-74
2023/04/21 17:49:43;;;;;;;10.00;5.45;;;;;;;23.24;42.07;101393.09;20987688;28;20047;-74
2023/04/21 17:59:45;;;;;;;9.73;5.80;;;;;;;23.14;41.69;101373.59;20972238;28;20025;-76
2023/04/21 18:09:50;;;;;;;8.55;5.80;;;;;;;23.33;41.93;101398.91;21005043;28;20433;-75
2023/04/21 18:19:51;;;;;;;8.10;5.82;;;;;;;23.39;42.11;101380.19;21000105;28;20028;-76
2023/04/21 18:29:52;;;;;;;11.85;6.68;;;;;;;23.24;41.38;101340.03;20978303;28;20115;-75
2023/04/21 18:39:54;;;;;;;13.32;6.47;;;;;;;23.45;42.20;101351.91;20955254;28;20025;-76
2023/04/21 18:49:55;;;;;;;11.23;6.57;;;;;;;23.48;41.68;101328.16;20948271;28;20040;-74
2023/04/21 18:59:56;;;;;;;15.90;7.13;;;;;;;23.38;41.76;101283.56;20997156;28;20028;-75
2023/04/21 19:09:58;;;;;;;11.32;7.30;;;;;;;22.87;40.81;101189.78;20993315;28;20052;-73
2023/04/21 19:19:59;;;;;;;10.10;6.93;;;;;;;23.43;39.86;101270.38;20989076;28;20036;-74
2023/04/21 19:30:00;;;;;;;17.17;6.95;;;;;;;23.52;39.64;101268.63;20993682;28;20114;-74
2023/04/21 19:40:02;;;;;;;11.75;6.40;;;;;;;23.53;39.91;101247.13;20994757;28;20032;-73
2023/04/21 19:50:06;;;;;;;8.25;6.72;;;;;;;23.54;39.51;101232.03;20999405;28;20028;-73
2023/04/21 20:00:08;;;;;;;10.93;6.57;;;;;;;23.53;39.68;101213.59;20989776;28;20079;-76
2023/04/21 20:10:10;;;;;;;17.50;7.20;;;;;;;23.45;40.01;101186.28;20985305;28;20037;-75
2023/04/21 20:20:12;;;;;;;13.52;6.63;;;;;;;23.55;39.58;101177.84;20983738;28;20368;-74
2023/04/21 20:30:13;;;;;;;10.85;6.88;;;;;;;23.53;39.51;101175.34;20987318;28;20110;-74
2023/04/21 20:40:17;;;;;;;23.95;8.38;;;;;;;23.53;40.39;101185.69;20976353;28;20071;-73
2023/04/21 20:50:18;;;;;;;17.58;8.40;;;;;;;23.54;41.67;101184.53;20974794;28;20090;-70
2023/04/21 21:00:20;;;;;;;14.02;7.13;;;;;;;23.46;41.78;101168.41;20984186;28;20063;-68
2023/04/21 21:10:21;;;;;;;24.75;7.53;;;;;;;23.57;42.47;101181.19;20986381;28;20909;-69
2023/04/21 21:20:22;;;;;;;17.52;7.45;;;;;;;23.58;41.86;101194.00;20962508;28;20048;-68
2023/04/21 21:30:24;;;;;;;14.73;6.95;;;;;;;23.50;41.45;101186.25;20936708;28;20102;-70
2023/04/21 21:40:25;;;;;;;13.55;7.30;;;;;;;23.49;43.22;101179.00;20896302;28;20044;-73
2023/04/21 21:50:26;;;;;;;15.05;6.72;;;;;;;23.68;43.79;101210.69;20888899;28;20099;-72
2023/04/21 22:00:31;;;;;;;12.18;7.03;;;;;;;23.67;44.10;101216.59;20880381;28;20045;-74
2023/04/21 22:10:33;;;;;;;18.17;7.70;;;;;;;23.81;43.77;101235.16;20881373;28;20045;-74
2023/04/21 22:20:35;;;;;;;10.10;6.35;;;;;;;23.56;43.53;101187.91;20882256;28;20446;-74
2023/04/21 22:30:36;;;;;;;14.75;7.78;;;;;;;23.77;43.91;101222.91;20936250;28;20561;-72
2023/04/21 22:40:38;;;;;;;20.70;7.63;;;;;;;23.93;44.28;101236.75;20991054;28;20040;-79
2023/04/21 22:50:43;;;;;;;18.67;6.85;;;;;;;23.94;44.25;101238.41;20988585;28;20078;-72
2023/04/21 23:00:45;;;;;;;15.13;7.43;;;;;;;24.01;44.06;101264.09;20983935;28;20032;-72
2023/04/21 23:10:46;;;;;;;9.05;7.25;;;;;;;24.12;44.22;101262.84;20985887;28;20044;-76
2023/04/21 23:20:51;;;;;;;14.52;7.90;;;;;;;24.15;43.96;101273.44;20978805;28;20403;-81
2023/04/21 23:30:52;;;;;;;9.50;6.72;;;;;;;23.69;44.01;101197.59;20984782;28;20037;-79
2023/04/21 23:40:56;;;;;;;7.95;5.97;;;;;;;24.15;44.19;101275.41;20982835;28;20073;-73
2023/04/21 23:50:57;;;;;;;11.13;6.20;;;;;;;23.99;44.25;101255.97;20956342;28;20094;-76
